Time;durP1;ratioP1;P1;durP2;ratioP2;P2;SDS_P1;SDS_P2;PMS_P1;PMS_P2;Temp;Humidity;BMP_temperature;BMP_pressure;BME280_temperature;BME280_humidity;BME280_pressure;Samples;Min_cycle;Max_cycle;Signal;HPM_P1;HPM_P2
2022/01/01 00:01:32;;;;;;;173.00;118.77;;;;;;;10.45;64.95;94969.63;5082680;28;20956;-78
2022/01/01 00:03:58;;;;;;;173.07;117.00;;;;;;;10.32;66.07;94970.28;5105704;28;20504;-78
2022/01/01 00:06:23;;;;;;;163.33;117.97;;;;;;;10.34;65.78;94973.53;5104217;28;20419;-78
2022/01/01 00:08:49;;;;;;;173.10;119.87;;;;;;;10.69;64.86;94968.44;5104301;28;20396;-78
2022/01/01 00:11:15;;;;;;;175.60;118.87;;;;;;;10.41;65.44;94967.56;5104003;28;20659;-78
2022/01/01 00:13:40;;;;;;;175.03;123.60;;;;;;;10.45;65.29;94963.56;5125885;28;20743;-79
2022/01/01 00:16:09;;;;;;;166.23;124.40;;;;;;;10.41;65.25;94963.13;5126166;28;20211;-78
2022/01/01 00:18:36;;;;;;;169.27;122.90;;;;;;;10.42;65.82;94959.53;5107833;28;20180;-78
2022/01/01 00:21:03;;;;;;;172.07;123.43;;;;;;;10.66;64.65;94950.53;5086866;28;20436;-78
2022/01/01 00:23:28;;;;;;;166.10;117.40;;;;;;;10.31;65.29;94950.34;5086422;28;20424;-78
2022/01/01 00:25:54;;;;;;;182.00;124.23;;;;;;;10.08;65.72;94960.13;5068367;28;20435;-78
2022/01/01 00:28:19;;;;;;;183.27;123.67;;;;;;;10.41;64.86;94946.63;5069491;28;20181;-78
2022/01/01 00:30:45;;;;;;;170.57;120.63;;;;;;;10.24;65.90;94954.66;5083415;28;20203;-78
2022/01/01 00:33:10;;;;;;;174.60;114.57;;;;;;;10.18;65.63;94958.03;5105501;28;20236;-78
2022/01/01 00:35:36;;;;;;;184.90;125.57;;;;;;;10.25;65.15;94961.53;5106425;28;20188;-78
2022/01/01 00:38:01;;;;;;;167.07;118.77;;;;;;;10.19;65.04;94959.66;5105809;28;20223;-78
2022/01/01 00:40:27;;;;;;;178.73;119.53;;;;;;;10.28;64.87;94960.34;5081377;28;20196;-77
2022/01/01 00:42:52;;;;;;;168.23;117.33;;;;;;;10.46;64.35;94959.97;5087844;28;20181;-78
2022/01/01 00:45:18;;;;;;;176.60;119.17;;;;;;;10.48;64.87;94963.22;5087981;28;20181;-78
2022/01/01 00:47:43;;;;;;;173.83;121.73;;;;;;;10.25;64.75;94955.50;5087209;28;20261;-78
2022/01/01 00:50:09;;;;;;;166.07;116.50;;;;;;;10.23;65.07;94953.06;5089113;28;20193;-78
2022/01/01 00:52:34;;;;;;;178.10;122.87;;;;;;;10.36;65.04;94944.59;5091302;28;20298;-78
2022/01/01 00:55:00;;;;;;;178.70;123.80;;;;;;;9.76;66.09;94942.03;5091525;28;20173;-79
2022/01/01 00:57:25;;;;;;;187.03;122.80;;;;;;;10.00;66.07;94945.34;5109703;28;20173;-78
2022/01/01 00:59:51;;;;;;;181.60;121.90;;;;;;;10.03;65.36;94938.94;5090864;28;20181;-79
2022/01/01 01:02:17;;;;;;;183.03;121.43;;;;;;;10.31;64.34;94928.63;5109053;28;20177;-78
2022/01/01 01:04:42;;;;;;;172.30;121.43;;;;;;;10.08;65.09;94926.13;5090926;28;20215;-78
2022/01/01 01:07:10;;;;;;;170.73;118.30;;;;;;;9.95;65.82;94919.75;5091995;28;20196;-78
2022/01/01 01:09:35;;;;;;;175.87;117.97;;;;;;;10.30;64.60;94909.50;5090884;28;20235;-77
2022/01/01 01:12:01;;;;;;;177.60;117.40;;;;;;;9.81;65.86;94919.75;5083080;28;20463;-78
2022/01/01 01:14:28;;;;;;;173.73;121.10;;;;;;;10.15;64.49;94913.94;5090762;28;20189;-78
2022/01/01 01:16:54;;;;;;;178.17;118.27;;;;;;;10.00;64.67;94913.16;5091638;28;20184;-77
2022/01/01 01:19:20;;;;;;;170.13;119.80;;;;;;;10.08;64.50;94916.47;5090407;28;20423;-78
2022/01/01 01:21:47;;;;;;;188.70;123.93;;;;;;;9.82;65.57;94921.41;5108837;28;20487;-78
2022/01/01 01:24:14;;;;;;;184.03;124.37;;;;;;;9.93;65.52;94911.28;5108549;28;20490;-78
2022/01/01 01:26:45;;;;;;;196.50;125.30;;;;;;;9.77;65.49;94924.56;5108470;28;20441;-78
2022/01/01 01:29:11;;;;;;;187.17;126.07;;;;;;;9.77;65.29;94925.38;5089444;28;20427;-77
2022/01/01 01:31:36;;;;;;;196.47;128.87;;;;;;;9.75;66.24;94939.59;5090284;28;20414;-78
2022/01/01 01:34:02;;;;;;;186.50;125.97;;;;;;;9.69;65.93;94935.09;5108122;28;20184;-78
2022/01/01 01:36:27;;;;;;;188.73;129.03;;;;;;;9.75;66.13;94934.38;5089543;28;20583;-78
2022/01/01 01:38:53;;;;;;;185.43;127.90;;;;;;;9.58;66.48;94950.25;5089929;28;20188;-78
2022/01/01 01:41:18;;;;;;;185.87;123.97;;;;;;;9.57;66.18;94947.81;5107496;28;20240;-77
2022/01/01 01:43:46;;;;;;;189.67;124.97;;;;;;;9.74;65.96;94951.06;5108085;28;20246;-78
2022/01/01 01:46:13;;;;;;;202.13;126.57;;;;;;;9.92;64.53;94945.44;5089896;28;20181;-78
2022/01/01 01:48:38;;;;;;;188.77;124.70;;;;;;;9.77;65.08;94943.66;5089965;28;20412;-77
2022/01/01 01:51:04;;;;;;;176.90;109.73;;;;;;;9.03;67.27;94938.41;5089370;28;20480;-78
2022/01/01 01:53:30;;;;;;;187.63;120.67;;;;;;;9.72;65.94;94943.41;5108086;28;20191;-78
2022/01/01 01:55:58;;;;;;;176.13;115.57;;;;;;;8.92;67.81;94947.47;5107551;28;20646;-78
2022/01/01 01:58:24;;;;;;;166.27;103.93;;;;;;;9.38;66.96;94931.69;5107972;28;20399;-77
2022/01/01 02:03:18;;;;;;;160.47;107.53;;;;;;;8.89;68.90;94926.13;5087653;28;20427;-77
2022/01/01 02:05:46;;;;;;;176.03;114.67;;;;;;;9.00;68.26;94923.09;5086229;28;20424;-77
2022/01/01 02:08:13;;;;;;;182.27;115.77;;;;;;;9.01;68.49;94919.50;5085841;28;20184;-77
2022/01/01 02:10:40;;;;;;;177.70;115.47;;;;;;;9.16;68.32;94911.66;5088910;28;20498;-78
2022/01/01 02:13:13;;;;;;;193.97;114.57;;;;;;;9.25;67.68;94908.00;5088931;28;20463;-78
2022/01/01 02:18:10;;;;;;;171.93;112.57;;;;;;;9.33;67.42;94920.16;5107450;28;20406;-78
2022/01/01 02:20:35;;;;;;;164.60;108.27;;;;;;;9.62;66.28;94915.91;5087502;28;20522;-80
2022/01/01 02:23:01;;;;;;;173.23;108.40;;;;;;;9.37;65.94;94924.84;5089377;28;20196;-78
2022/01/01 02:25:28;;;;;;;153.30;96.30;;;;;;;9.68;66.04;94909.97;5088956;28;20185;-77
2022/01/01 02:27:55;;;;;;;157.20;105.60;;;;;;;9.28;67.17;94914.69;5107062;28;20658;-77
2022/01/01 02:30:22;;;;;;;159.70;105.07;;;;;;;9.18;66.78;94907.91;5088317;28;20463;-78
2022/01/01 02:32:47;;;;;;;157.20;106.43;;;;;;;8.95;68.01;94914.97;5088775;28;20450;-78
2022/01/01 02:35:15;;;;;;;160.13;104.53;;;;;;;9.53;66.01;94907.38;5107423;28;20415;-78
2022/01/01 02:37:41;;;;;;;168.53;107.73;;;;;;;9.21;67.35;94917.19;5089137;28;20637;-78
2022/01/01 02:40:08;;;;;;;165.20;105.00;;;;;;;9.47;66.93;94906.28;5106477;28;20531;-78
2022/01/01 02:42:34;;;;;;;152.70;106.00;;;;;;;9.37;66.87;94909.19;5107342;28;20423;-77
2022/01/01 02:45:05;;;;;;;153.07;102.70;;;;;;;9.33;66.20;94902.69;5107203;28;20443;-78
2022/01/01 02:47:31;;;;;;;150.07;99.60;;;;;;;9.30;66.71;94897.03;5107018;28;20396;-77
2022/01/01 02:49:56;;;;;;;159.53;99.00;;;;;;;9.27;66.76;94903.41;5106484;28;20459;-78
2022/01/01 02:52:22;;;;;;;148.13;96.10;;;;;;;9.43;66.45;94902.44;5088496;28;20701;-78
2022/01/01 02:54:47;;;;;;;138.53;92.20;;;;;;;9.39;66.14;94898.56;5088556;28;20181;-78
2022/01/01 02:57:13;;;;;;;150.23;94.97;;;;;;;9.30;65.94;94897.81;5106836;28;20173;-77
2022/01/01 02:59:38;;;;;;;138.47;91.00;;;;;;;9.26;66.63;94895.75;5106755;28;20287;-78
2022/01/01 03:02:04;;;;;;;131.70;88.80;;;;;;;9.36;65.89;94885.84;5100051;28;20172;-78
2022/01/01 03:04:29;;;;;;;139.70;89.53;;;;;;;9.04;66.68;94887.81;5126648;28;20635;-78
2022/01/01 03:06:56;;;;;;;129.63;89.60;;;;;;;9.26;66.17;94869.63;5127227;28;20172;-78
2022/01/01 03:09:25;;;;;;;139.60;89.43;;;;;;;9.36;65.71;94875.41;5126650;28;20210;-78
2022/01/01 03:11:52;;;;;;;138.97;87.03;;;;;;;9.31;65.93;94872.50;5091783;28;20459;-78
2022/01/01 03:14:17;;;;;;;119.83;78.77;;;;;;;9.33;65.79;94867.91;5106507;28;20429;-77
2022/01/01 03:16:47;;;;;;;126.73;82.03;;;;;;;8.95;67.66;94870.59;5088163;28;20419;-78
2022/01/01 03:19:13;;;;;;;107.57;72.33;;;;;;;9.22;66.21;94863.16;5088119;28;20570;-78
2022/01/01 03:21:39;;;;;;;115.70;71.97;;;;;;;9.16;66.64;94875.13;5106264;28;20963;-76
2022/01/01 03:24:06;;;;;;;107.43;70.80;;;;;;;9.30;66.00;94868.31;5105886;28;20510;-77
2022/01/01 03:26:31;;;;;;;90.87;59.97;;;;;;;9.30;66.23;94865.69;5106335;28;20177;-77
2022/01/01 03:28:57;;;;;;;102.60;65.27;;;;;;;9.10;67.23;94863.59;5106090;28;20548;-78
2022/01/01 03:31:24;;;;;;;95.63;68.33;;;;;;;9.15;66.56;94869.09;5105723;28;20200;-78
2022/01/01 03:33:50;;;;;;;107.73;68.40;;;;;;;8.96;68.00;94869.63;5087886;28;20197;-78
2022/01/01 03:36:16;;;;;;;103.23;64.97;;;;;;;9.32;66.33;94874.16;5088059;28;20427;-78
2022/01/01 03:38:41;;;;;;;102.37;64.33;;;;;;;9.25;66.36;94868.03;5106462;28;20427;-79
2022/01/01 03:41:07;;;;;;;101.00;62.63;;;;;;;9.30;66.36;94871.72;5105905;28;20227;-78
2022/01/01 03:43:32;;;;;;;99.03;59.03;;;;;;;9.85;64.31;94869.56;5106066;28;20165;-78
2022/01/01 03:45:57;;;;;;;98.40;63.97;;;;;;;9.33;65.99;94880.97;5106581;28;20215;-78
2022/01/01 03:48:23;;;;;;;93.80;59.67;;;;;;;9.50;65.75;94876.38;5087367;28;20208;-78
2022/01/01 03:50:48;;;;;;;77.47;54.73;;;;;;;9.64;66.44;94872.16;5085900;28;20358;-77
2022/01/01 03:53:16;;;;;;;93.20;60.03;;;;;;;9.52;66.05;94882.22;5085430;28;20541;-78
2022/01/01 03:55:41;;;;;;;93.80;59.30;;;;;;;9.42;66.50;94879.91;5086199;28;20189;-79
2022/01/01 03:58:06;;;;;;;85.73;56.93;;;;;;;9.52;66.67;94874.41;5085549;28;20887;-78
2022/01/01 04:00:32;;;;;;;83.47;54.57;;;;;;;9.38;66.71;94857.75;5086443;28;20177;-78
2022/01/01 04:03:16;;;;;;;69.70;44.03;;;;;;;9.47;66.83;94851.44;5105971;28;20241;-77
2022/01/01 04:05:43;;;;;;;73.23;50.33;;;;;;;9.29;66.55;94853.59;5105863;28;20202;-78
2022/01/01 04:08:10;;;;;;;75.33;50.53;;;;;;;9.40;66.96;94845.31;5105594;28;20438;-78
2022/01/01 04:10:35;;;;;;;75.67;50.57;;;;;;;9.36;66.95;94844.06;5105832;28;20470;-79
2022/01/01 04:13:02;;;;;;;78.23;52.43;;;;;;;9.27;67.22;94837.31;5084316;28;20460;-77
2022/01/01 04:15:29;;;;;;;80.17;51.97;;;;;;;9.31;66.82;94835.97;5087072;28;20442;-78
2022/01/01 04:17:58;;;;;;;76.57;50.50;;;;;;;9.83;65.28;94834.16;5083769;28;20499;-77
2022/01/01 04:20:25;;;;;;;78.30;52.17;;;;;;;9.46;66.09;94828.91;5067756;28;20432;-78
2022/01/01 04:22:55;;;;;;;76.03;45.53;;;;;;;9.62;65.39;94825.28;5085281;28;20408;-79
2022/01/01 04:25:21;;;;;;;74.80;50.27;;;;;;;9.36;66.30;94823.97;5070032;28;20428;-78
2022/01/01 04:27:47;;;;;;;79.47;51.20;;;;;;;9.43;66.11;94813.63;5107224;28;20449;-78
2022/01/01 04:30:13;;;;;;;64.20;44.80;;;;;;;9.74;65.83;94815.16;5109836;28;20492;-78
2022/01/01 04:32:38;;;;;;;70.17;47.30;;;;;;;9.34;66.93;94817.31;5109938;28;20411;-78
2022/01/01 04:35:04;;;;;;;63.97;46.27;;;;;;;9.22;67.46;94821.38;5109464;28;20317;-78
2022/01/01 04:37:30;;;;;;;62.77;44.47;;;;;;;9.30;66.92;94824.72;5096311;28;20319;-78
2022/01/01 04:39:59;;;;;;;66.30;46.57;;;;;;;9.14;67.78;94823.09;5089125;28;20495;-78
2022/01/01 04:42:25;;;;;;;66.60;46.90;;;;;;;9.10;67.46;94821.03;5071031;28;20258;-78
2022/01/01 04:44:50;;;;;;;65.20;47.10;;;;;;;9.13;67.46;94818.88;5070877;28;20443;-78
2022/01/01 04:47:16;;;;;;;62.70;43.47;;;;;;;9.56;65.58;94815.56;5089195;28;20422;-78
2022/01/01 04:49:41;;;;;;;58.50;43.43;;;;;;;9.33;66.28;94818.31;5088881;28;20206;-78
2022/01/01 04:52:07;;;;;;;59.50;41.67;;;;;;;9.41;65.87;94805.16;5088975;28;20178;-78
2022/01/01 04:54:34;;;;;;;67.40;43.23;;;;;;;9.30;66.87;94816.06;5088529;28;20202;-77
2022/01/01 04:56:59;;;;;;;67.50;44.23;;;;;;;9.43;66.11;94813.63;5089079;28;20181;-78
2022/01/01 04:59:25;;;;;;;68.13;42.60;;;;;;;9.24;66.65;94806.34;5088909;28;20713;-80
2022/01/01 05:01:51;;;;;;;69.37;44.17;;;;;;;9.34;67.01;94799.03;5111632;28;20299;-78
2022/01/01 05:04:16;;;;;;;64.27;43.13;;;;;;;9.60;66.04;94793.31;5129541;28;20191;-78
2022/01/01 05:06:42;;;;;;;58.93;42.00;;;;;;;9.14;66.29;94796.16;5129132;28;20180;-78
2022/01/01 05:09:08;;;;;;;61.33;45.27;;;;;;;9.39;67.02;94812.38;5129026;28;20268;-78
2022/01/01 05:11:34;;;;;;;61.53;41.73;;;;;;;9.73;66.13;94818.75;5128745;28;20200;-78
2022/01/01 05:13:59;;;;;;;57.70;41.27;;;;;;;9.48;66.64;94834.75;5112380;28;20539;-78
2022/01/01 05:16:25;;;;;;;57.77;40.67;;;;;;;9.43;65.76;94849.34;5108300;28;20467;-78
2022/01/01 05:18:50;;;;;;;61.83;42.73;;;;;;;9.51;66.10;94851.88;5090273;28;20694;-77
2022/01/01 05:21:16;;;;;;;56.80;39.07;;;;;;;10.12;63.75;94849.75;5108278;28;20173;-78
2022/01/01 05:23:42;;;;;;;64.80;38.23;;;;;;;9.86;64.89;94862.53;5108068;28;20181;-77
2022/01/01 05:26:07;;;;;;;49.83;34.27;;;;;;;9.45;66.01;94863.88;5108572;28;20173;-78
2022/01/01 05:28:33;;;;;;;58.57;36.83;;;;;;;9.43;66.76;94865.03;5090339;28;20539;-77
2022/01/01 05:30:58;;;;;;;52.07;32.37;;;;;;;8.78;68.40;94873.41;5108385;28;20692;-76
2022/01/01 05:33:23;;;;;;;46.30;32.93;;;;;;;9.11;68.49;94870.44;5108266;28;20275;-77
2022/01/01 05:35:49;;;;;;;54.30;34.40;;;;;;;9.29;67.45;94877.09;5107652;28;20196;-77
2022/01/01 05:38:14;;;;;;;48.13;31.80;;;;;;;9.55;66.60;94874.03;5107920;28;20177;-77
2022/01/01 05:40:40;;;;;;;48.50;33.50;;;;;;;9.36;67.50;94876.22;5089772;28;20631;-78
2022/01/01 05:43:12;;;;;;;50.20;34.90;;;;;;;9.24;67.25;94890.72;5089264;28;20234;-78
2022/01/01 05:45:38;;;;;;;49.47;31.73;;;;;;;9.48;66.87;94894.84;5089918;28;20209;-77
2022/01/01 05:48:04;;;;;;;46.07;31.23;;;;;;;9.39;67.04;94890.72;5090447;28;20407;-77
2022/01/01 05:50:29;;;;;;;52.40;32.83;;;;;;;9.35;67.35;94889.44;5107960;28;20451;-78
2022/01/01 05:52:55;;;;;;;42.33;26.07;;;;;;;9.25;67.16;94883.69;5089319;28;20185;-77
2022/01/01 05:55:20;;;;;;;44.87;29.60;;;;;;;9.03;68.11;94886.22;5108333;28;20180;-78
2022/01/01 05:57:45;;;;;;;44.67;30.20;;;;;;;8.95;68.03;94878.44;5108237;28;20262;-78
2022/01/01 06:00:13;;;;;;;39.07;27.93;;;;;;;9.25;67.03;94868.03;5107483;28;20181;-78
2022/01/01 06:02:42;;;;;;;43.67;30.30;;;;;;;9.43;67.15;94858.03;5088791;28;20178;-78
2022/01/01 06:05:08;;;;;;;47.67;32.80;;;;;;;9.35;66.89;94863.31;5087216;28;20471;-79
2022/01/01 06:07:33;;;;;;;41.73;31.03;;;;;;;9.52;66.05;94866.56;5087556;28;21156;-78
2022/01/01 06:09:59;;;;;;;43.10;29.53;;;;;;;9.71;65.66;94855.56;5087047;28;20467;-78
2022/01/01 06:12:25;;;;;;;42.70;29.73;;;;;;;9.56;66.42;94860.81;5094112;28;20221;-78
2022/01/01 06:14:51;;;;;;;38.77;26.87;;;;;;;9.40;66.82;94860.19;5107433;28;20419;-77
2022/01/01 06:17:16;;;;;;;37.60;30.87;;;;;;;9.34;66.36;94859.91;5107742;28;20441;-78
2022/01/01 06:19:42;;;;;;;38.07;28.60;;;;;;;9.45;66.81;94863.06;5107543;28;20181;-79
2022/01/01 06:22:07;;;;;;;46.97;29.90;;;;;;;9.51;66.33;94867.56;5089608;28;20192;-78
2022/01/01 06:24:33;;;;;;;43.37;30.77;;;;;;;9.79;66.00;94862.47;5107643;28;20185;-79
2022/01/01 06:26:58;;;;;;;42.97;30.90;;;;;;;9.47;66.73;94861.88;5107547;28;20181;-79
2022/01/01 06:29:23;;;;;;;38.13;27.67;;;;;;;9.74;66.23;94857.78;5107329;28;20185;-78
2022/01/01 06:31:49;;;;;;;45.83;30.30;;;;;;;9.94;65.11;94857.19;5094920;28;20180;-79
2022/01/01 06:34:14;;;;;;;41.27;28.07;;;;;;;9.71;65.98;94852.09;5069065;28;20186;-78
2022/01/01 06:36:40;;;;;;;41.83;29.67;;;;;;;9.76;66.19;94860.22;5090425;28;20170;-78
2022/01/01 06:39:05;;;;;;;39.60;29.30;;;;;;;9.96;65.78;94868.28;5070728;28;20562;-80
2022/01/01 06:41:33;;;;;;;41.30;29.20;;;;;;;8.86;68.84;94884.72;5072660;28;20189;-79
2022/01/01 06:43:59;;;;;;;39.23;27.77;;;;;;;9.29;68.07;94874.50;5070011;28;20189;-78
2022/01/01 06:46:24;;;;;;;38.50;28.30;;;;;;;9.50;67.58;94885.00;5069987;28;20412;-78
2022/01/01 06:48:50;;;;;;;42.63;29.87;;;;;;;9.16;68.24;94885.56;5069654;28;20207;-78
2022/01/01 06:51:16;;;;;;;34.43;26.40;;;;;;;9.48;67.90;94887.00;5075212;28;20252;-78
2022/01/01 06:53:41;;;;;;;38.90;26.80;;;;;;;9.54;68.17;94883.69;5089769;28;20407;-79
2022/01/01 06:56:07;;;;;;;35.53;26.97;;;;;;;9.63;67.97;94887.00;5089887;28;20535;-78
2022/01/01 06:58:36;;;;;;;39.13;29.10;;;;;;;9.11;69.49;94898.38;5090552;28;20208;-79
2022/01/01 07:01:03;;;;;;;35.33;24.70;;;;;;;9.80;67.33;94898.06;5106860;28;20180;-78
2022/01/01 07:03:29;;;;;;;38.67;25.40;;;;;;;10.27;65.98;94883.69;5088612;28;20479;-78
2022/01/01 07:05:54;;;;;;;31.13;25.03;;;;;;;10.39;65.44;94884.03;5107312;28;20426;-79
2022/01/01 07:08:20;;;;;;;31.77;23.93;;;;;;;10.56;65.33;94895.06;5106509;28;20231;-78
2022/01/01 07:10:46;;;;;;;38.93;28.73;;;;;;;10.71;64.28;94885.31;5087943;28;20247;-78
2022/01/01 07:13:12;;;;;;;42.23;31.00;;;;;;;10.67;65.50;94897.16;5088296;28;20813;-79
2022/01/01 07:15:38;;;;;;;37.53;27.70;;;;;;;10.69;64.41;94897.78;5106678;28;20445;-78
2022/01/01 07:18:03;;;;;;;37.17;27.80;;;;;;;10.67;63.92;94902.41;5106104;28;20407;-78
2022/01/01 07:20:29;;;;;;;34.97;25.10;;;;;;;10.58;64.55;94903.53;5110191;28;20181;-78
2022/01/01 07:22:54;;;;;;;34.10;26.17;;;;;;;10.37;65.08;94903.53;5088278;28;20700;-78
2022/01/01 07:25:20;;;;;;;34.83;26.30;;;;;;;10.47;65.62;94906.63;5106496;28;20188;-78
2022/01/01 07:27:45;;;;;;;31.67;22.80;;;;;;;10.57;65.23;94911.56;5106805;28;20169;-78
2022/01/01 07:30:11;;;;;;;29.43;23.73;;;;;;;10.94;63.77;94906.03;5088387;28;20224;-79
2022/01/01 07:32:42;;;;;;;36.07;26.70;;;;;;;10.49;65.41;94900.25;5106789;28;20161;-78
2022/01/01 07:35:10;;;;;;;36.70;26.17;;;;;;;11.03;63.96;94898.06;5088433;28;20419;-78
2022/01/01 07:37:35;;;;;;;29.30;25.13;;;;;;;11.25;63.02;94901.41;5088560;28;20403;-78
2022/01/01 07:40:01;;;;;;;36.93;25.50;;;;;;;11.40;62.42;94904.75;5088291;28;20564;-79
2022/01/01 07:42:26;;;;;;;39.03;26.40;;;;;;;11.51;62.55;94912.06;5087892;28;20212;-79
2022/01/01 07:44:52;;;;;;;35.23;28.50;;;;;;;11.25;63.12;94912.72;5106076;28;20510;-78
2022/01/01 07:47:17;;;;;;;38.10;27.20;;;;;;;11.13;63.73;94924.72;5087956;28;20263;-79
2022/01/01 07:49:43;;;;;;;37.73;28.00;;;;;;;11.39;63.39;94924.09;5106012;28;20211;-78
2022/01/01 07:52:09;;;;;;;33.77;27.00;;;;;;;11.94;61.88;94920.78;5106013;28;20177;-78
2022/01/01 07:54:34;;;;;;;44.10;29.57;;;;;;;12.30;60.95;94921.28;5087859;28;20185;-78
2022/01/01 07:57:00;;;;;;;33.23;26.17;;;;;;;12.65;59.06;94921.16;5088135;28;20501;-79
2022/01/01 07:59:25;;;;;;;33.97;25.37;;;;;;;12.96;58.89;94903.22;5105998;28;20200;-78
2022/01/01 08:01:51;;;;;;;26.83;21.40;;;;;;;13.18;58.50;94911.66;5094020;28;20182;-78
2022/01/01 08:04:16;;;;;;;24.03;18.27;;;;;;;13.03;58.60;94904.81;5085471;28;20182;-78
2022/01/01 08:06:42;;;;;;;20.20;14.67;;;;;;;13.26;57.50;94903.56;5067530;28;20177;-79
2022/01/01 08:09:07;;;;;;;15.90;11.80;;;;;;;14.05;56.51;94901.75;5085691;28;20178;-79
2022/01/01 08:11:33;;;;;;;9.60;7.33;;;;;;;14.10;56.17;94899.31;5067439;28;20205;-78
2022/01/01 08:13:58;;;;;;;4.13;3.73;;;;;;;14.05;55.49;94891.25;5091473;28;20185;-78
2022/01/01 08:16:24;;;;;;;4.43;4.00;;;;;;;14.59;53.98;94897.88;5105864;28;20181;-79
2022/01/01 08:18:49;;;;;;;3.37;2.80;;;;;;;14.90;52.92;94898.84;5087477;28;20176;-78
2022/01/01 08:21:15;;;;;;;3.03;2.50;;;;;;;14.80;53.57;94901.16;5105569;28;20169;-77
2022/01/01 08:23:41;;;;;;;2.60;2.10;;;;;;;14.77;53.47;94905.03;5105396;28;20181;-78
2022/01/01 08:26:06;;;;;;;1.87;1.37;;;;;;;14.67;53.41;94903.91;5105242;28;20422;-78
2022/01/01 08:28:32;;;;;;;2.10;1.90;;;;;;;14.68;53.01;94901.03;5105585;28;20170;-77
2022/01/01 08:30:57;;;;;;;1.27;0.80;;;;;;;14.44;53.38;94892.84;5105334;28;20209;-78
2022/01/01 08:33:23;;;;;;;1.50;1.40;;;;;;;14.79;53.18;94902.19;5105017;28;20201;-78
2022/01/01 08:35:48;;;;;;;1.70;1.60;;;;;;;15.19;52.45;94915.84;5105945;28;20195;-78
2022/01/01 08:38:14;;;;;;;1.70;1.60;;;;;;;15.36;52.52;94924.00;5105240;28;20161;-78
2022/01/01 08:40:40;;;;;;;1.97;1.80;;;;;;;14.98;53.28;94919.66;5105393;28;20246;-77
2022/01/01 08:43:05;;;;;;;2.37;2.17;;;;;;;15.23;52.75;94916.22;5105353;28;20351;-79
2022/01/01 08:45:33;;;;;;;1.47;1.37;;;;;;;14.86;52.77;94912.69;5087324;28;20181;-78
2022/01/01 08:47:59;;;;;;;2.10;1.90;;;;;;;15.09;52.87;94928.72;5087350;28;20173;-79
2022/01/01 08:50:24;;;;;;;2.40;2.20;;;;;;;15.39;52.22;94923.59;5105365;28;20455;-78
2022/01/01 08:52:50;;;;;;;2.07;1.97;;;;;;;15.75;51.58;94927.31;5105132;28;20195;-78
2022/01/01 08:55:15;;;;;;;2.17;1.97;;;;;;;15.11;52.79;94925.88;5087068;28;20243;-78
2022/01/01 08:57:41;;;;;;;1.40;1.30;;;;;;;15.07;52.21;94920.22;5105334;28;20170;-78
2022/01/01 09:00:09;;;;;;;1.77;1.60;;;;;;;15.19;51.39;94930.84;5087259;28;20189;-78
2022/01/01 09:02:35;;;;;;;1.93;1.50;;;;;;;15.28;50.96;94921.66;5086602;28;20204;-77
2022/01/01 09:05:01;;;;;;;1.67;1.57;;;;;;;15.56;50.89;94934.38;5086374;28;20449;-78
2022/01/01 09:07:29;;;;;;;1.60;1.47;;;;;;;15.10;51.03;94937.41;5087016;28;20173;-79
2022/01/01 09:09:55;;;;;;;2.30;2.07;;;;;;;15.72;50.23;94946.19;5105361;28;20200;-78
2022/01/01 09:12:21;;;;;;;2.17;1.50;;;;;;;14.98;52.34;94940.75;5090403;28;20510;-77
2022/01/01 09:14:46;;;;;;;1.83;1.33;;;;;;;15.15;51.84;94945.50;5090367;28;20584;-77
2022/01/01 09:17:12;;;;;;;1.83;1.40;;;;;;;15.02;52.69;94944.59;5108636;28;20199;-78
2022/01/01 09:19:37;;;;;;;2.17;1.93;;;;;;;15.61;51.76;94941.63;5089801;28;20283;-78
2022/01/01 09:22:03;;;;;;;3.10;2.30;;;;;;;16.07;50.22;94950.09;5108374;28;20197;-78
2022/01/01 09:24:28;;;;;;;2.47;1.90;;;;;;;16.14;50.12;94948.19;5108514;28;20181;-78
2022/01/01 09:26:54;;;;;;;2.00;1.70;;;;;;;15.87;51.49;94951.16;5108116;28;20173;-77
2022/01/01 09:29:19;;;;;;;1.50;1.40;;;;;;;16.07;50.50;94950.94;5089918;28;20181;-78
2022/01/01 09:31:45;;;;;;;2.83;2.63;;;;;;;16.79;49.08;94952.88;5101366;28;20194;-77
2022/01/01 09:34:11;;;;;;;2.30;2.20;;;;;;;17.17;47.85;94959.66;5087602;28;20174;-78
2022/01/01 09:36:37;;;;;;;2.00;1.60;;;;;;;17.00;47.14;94958.69;5086560;28;20484;-78
2022/01/01 09:39:05;;;;;;;3.53;2.47;;;;;;;16.70;48.30;94948.94;5087842;28;20182;-78
2022/01/01 09:41:31;;;;;;;3.23;2.40;;;;;;;17.55;46.23;94961.06;5090223;28;20433;-78
2022/01/01 09:43:57;;;;;;;2.13;1.93;;;;;;;16.73;47.47;94953.75;5108022;28;20509;-78
2022/01/01 09:46:25;;;;;;;2.40;2.30;;;;;;;17.02;46.97;94961.94;5107809;28;20419;-78
2022/01/01 09:48:51;;;;;;;2.60;1.87;;;;;;;16.97;47.04;94971.31;5107649;28;20411;-78
2022/01/01 09:51:17;;;;;;;2.07;1.97;;;;;;;16.49;47.63;94960.81;5107761;28;20439;-78
2022/01/01 09:53:42;;;;;;;3.30;2.10;;;;;;;16.32;48.33;94960.59;5107455;28;20184;-78
2022/01/01 09:56:08;;;;;;;3.50;2.73;;;;;;;16.30;48.10;94960.00;5089728;28;20172;-78
2022/01/01 09:58:37;;;;;;;3.10;2.20;;;;;;;16.06;48.30;94948.50;5107754;28;20208;-78
2022/01/01 10:01:06;;;;;;;5.03;2.33;;;;;;;16.03;48.02;94957.69;5085605;28;20212;-77
2022/01/01 10:03:37;;;;;;;2.20;1.97;;;;;;;16.06;48.31;94974.91;5087216;28;20412;-77
2022/01/01 10:06:12;;;;;;;3.50;3.30;;;;;;;15.49;49.50;94973.19;5086914;28;20420;-78
2022/01/01 10:08:44;;;;;;;3.03;2.63;;;;;;;15.30;50.40;94971.53;5087501;28;20764;-77
2022/01/01 10:11:10;;;;;;;2.70;2.50;;;;;;;15.83;49.61;94980.84;5085665;28;20455;-78
2022/01/01 10:13:37;;;;;;;2.70;2.50;;;;;;;15.46;50.15;94973.66;5086997;28;20456;-79
2022/01/01 10:16:06;;;;;;;5.20;2.83;;;;;;;14.97;51.77;94972.59;5087277;28;20621;-78
2022/01/01 10:18:35;;;;;;;3.07;2.87;;;;;;;15.51;51.33;94978.25;5087139;28;20423;-78
2022/01/01 10:21:04;;;;;;;3.30;2.67;;;;;;;15.26;51.41;94975.63;5104914;28;20446;-78
2022/01/01 10:23:32;;;;;;;3.13;2.70;;;;;;;16.09;50.26;94977.91;5087953;28;20411;-78
2022/01/01 10:29:02;;;;;;;3.47;3.17;;;;;;;16.23;49.47;94975.13;5107075;28;20448;-78
2022/01/01 10:31:28;;;;;;;3.97;3.67;;;;;;;16.23;49.23;94964.56;5106876;28;20443;-78
2022/01/01 10:33:54;;;;;;;4.13;3.60;;;;;;;15.94;49.75;94956.38;5106365;28;20496;-78
2022/01/01 10:36:21;;;;;;;3.07;2.77;;;;;;;15.35;51.40;94955.88;5088908;28;20180;-77
2022/01/01 10:38:48;;;;;;;3.30;3.03;;;;;;;15.73;50.10;94950.47;5107171;28;20415;-77
2022/01/01 10:41:15;;;;;;;4.50;3.73;;;;;;;15.98;49.97;94958.34;5106715;28;20423;-77
2022/01/01 10:43:43;;;;;;;7.73;4.03;;;;;;;16.10;49.30;94939.91;5106577;28;20407;-78
2022/01/01 10:46:13;;;;;;;4.17;3.20;;;;;;;16.08;49.47;94939.34;5106922;28;20407;-78
2022/01/01 10:48:52;;;;;;;4.07;3.27;;;;;;;16.81;48.15;94940.22;5106406;28;20407;-78
2022/01/01 10:51:19;;;;;;;4.23;3.67;;;;;;;16.90;47.66;94938.09;5105971;28;21069;-77
2022/01/01 10:53:44;;;;;;;3.77;3.47;;;;;;;16.51;47.84;94930.47;5106468;28;20423;-77
2022/01/01 10:56:21;;;;;;;4.03;3.60;;;;;;;16.93;46.66;94933.16;5106420;28;20778;-78
2022/01/01 10:58:58;;;;;;;4.17;2.80;;;;;;;16.73;47.17;94932.59;5088281;28;20241;-77
2022/01/01 11:01:24;;;;;;;3.43;2.97;;;;;;;15.89;48.46;94933.25;5087822;28;20415;-79
2022/01/01 11:03:53;;;;;;;2.40;2.20;;;;;;;15.87;47.68;94919.47;5087822;28;20847;-77
2022/01/01 11:06:19;;;;;;;3.30;3.00;;;;;;;15.97;47.21;94930.34;5106173;28;20233;-78
2022/01/01 11:08:46;;;;;;;3.40;2.40;;;;;;;16.09;47.10;94917.19;5106377;28;20426;-77
2022/01/01 11:11:13;;;;;;;2.70;2.37;;;;;;;16.47;45.93;94916.09;5105821;28;20196;-78
2022/01/01 11:13:41;;;;;;;2.60;1.47;;;;;;;15.83;47.51;94922.78;5105982;28;21067;-77
2022/01/01 11:16:07;;;;;;;1.77;1.67;;;;;;;15.95;46.54;94921.84;5106239;28;20407;-78
2022/01/01 11:18:34;;;;;;;2.40;2.20;;;;;;;15.86;46.88;94928.44;5105792;28;20427;-77
2022/01/01 11:21:02;;;;;;;3.43;3.10;;;;;;;16.77;45.10;94934.59;5087905;28;20427;-78
2022/01/01 11:23:27;;;;;;;2.93;2.70;;;;;;;16.09;46.54;94933.03;5087966;28;20873;-78
2022/01/01 11:25:54;;;;;;;3.30;3.00;;;;;;;16.25;46.13;94914.97;5106286;28;20422;-78